<?xml version='1.0' encoding='UTF-8'?><gpx version="1.1" creator="JPX - https://github.com/jenetics/jpx" xmlns="http://www.topografix.com/GPX/1/1"><trk><trkseg><trkpt lat="44.4861684" lon="9.0781723"><ele>899.8</ele><time>2026-03-22T15:31:10.284Z</time></trkpt><trkpt lat="44.4862682" lon="9.0783043"><ele>901.5999999999999</ele><time>2026-03-22T15:31:11.283Z</time></trkpt><trkpt lat="44.4863212" lon="9.0783892"><ele>903.4000000000001</ele><time>2026-03-22T15:31:12.285Z</time></trkpt><trkpt lat="44.4863705" lon="9.0784772"><ele>905.2</ele><time>2026-03-22T15:31:13.284Z</time></trkpt><trkpt lat="44.4864481" lon="9.0785663"><ele>907.0</ele><time>2026-03-22T15:31:14.284Z</time></trkpt><trkpt lat="44.4865111" lon="9.0786043"><ele>906.9999999999999</ele><time>2026-03-22T15:31:15.285Z</time></trkpt><trkpt lat="44.4865757" lon="9.0786348"><ele>907.0</ele><time>2026-03-22T15:31:16.284Z</time></trkpt><trkpt lat="44.486657" lon="9.0785963"><ele>907.0</ele><time>2026-03-22T15:31:17.285Z</time></trkpt><trkpt lat="44.4867405" lon="9.0785347"><ele>907.0</ele><time>2026-03-22T15:31:18.283Z</time></trkpt><trkpt lat="44.486821" lon="9.0784543"><ele>906.9999999999999</ele><time>2026-03-22T15:31:19.285Z</time></trkpt><trkpt lat="44.4868924" lon="9.0783737"><ele>907.0</ele><time>2026-03-22T15:31:20.284Z</time></trkpt><trkpt lat="44.4869553" lon="9.0783142"><ele>905.8333333333333</ele><time>2026-03-22T15:31:21.284Z</time></trkpt><trkpt lat="44.4870208" lon="9.0782633"><ele>904.6666666666666</ele><time>2026-03-22T15:31:22.283Z</time></trkpt><trkpt lat="44.4871328" lon="9.0782365"><ele>903.5</ele><time>2026-03-22T15:31:24.284Z</time></trkpt><trkpt lat="44.4871668" lon="9.0783401"><ele>902.3333333333333</ele><time>2026-03-22T15:31:25.284Z</time></trkpt><trkpt lat="44.4872176" lon="9.0784004"><ele>901.1666666666666</ele><time>2026-03-22T15:31:26.285Z</time></trkpt><trkpt lat="44.4872876" lon="9.0784436"><ele>900.0</ele><time>2026-03-22T15:31:27.284Z</time></trkpt><trkpt lat="44.4873756" lon="9.0784681"><ele>900.0</ele><time>2026-03-22T15:31:28.285Z</time></trkpt><trkpt lat="44.4874454" lon="9.0785121"><ele>900.0</ele><time>2026-03-22T15:31:29.283Z</time></trkpt><trkpt lat="44.4875698" lon="9.0784971"><ele>900.0</ele><time>2026-03-22T15:31:31.284Z</time></trkpt><trkpt lat="44.4876446" lon="9.0784513"><ele>900.0</ele><time>2026-03-22T15:31:32.284Z</time></trkpt><trkpt lat="44.4877613" lon="9.0783636"><ele>900.0</ele><time>2026-03-22T15:31:34.284Z</time></trkpt><trkpt lat="44.4878411" lon="9.0783559"><ele>900.0</ele><time>2026-03-22T15:31:35.284Z</time></trkpt><trkpt lat="44.4879187" lon="9.0783492"><ele>900.0</ele><time>2026-03-22T15:31:36.284Z</time></trkpt><trkpt lat="44.4880018" lon="9.0782838"><ele>900.0</ele><time>2026-03-22T15:31:37.285Z</time></trkpt><trkpt lat="44.4880736" lon="9.0782234"><ele>900.0</ele><time>2026-03-22T15:31:38.284Z</time></trkpt><trkpt lat="44.48814" lon="9.0781955"><ele>900.0</ele><time>2026-03-22T15:31:39.285Z</time></trkpt><trkpt lat="44.4882039" lon="9.078175"><ele>900.0</ele><time>2026-03-22T15:31:40.283Z</time></trkpt><trkpt lat="44.4883362" lon="9.0781663"><ele>894.6</ele><time>2026-03-22T15:31:42.284Z</time></trkpt><trkpt lat="44.4884475" lon="9.0780725"><ele>889.2</ele><time>2026-03-22T15:31:44.284Z</time></trkpt><trkpt lat="44.488503" lon="9.0779963"><ele>883.8</ele><time>2026-03-22T15:31:45.284Z</time></trkpt><trkpt lat="44.4885708" lon="9.0778643"><ele>878.4</ele><time>2026-03-22T15:31:46.285Z</time></trkpt><trkpt lat="44.4886136" lon="9.0777447"><ele>873.0</ele><time>2026-03-22T15:31:47.284Z</time></trkpt><trkpt lat="44.4886521" lon="9.0776543"><ele>873.0</ele><time>2026-03-22T15:31:48.284Z</time></trkpt><trkpt lat="44.4887106" lon="9.0775585"><ele>873.0</ele><time>2026-03-22T15:31:49.284Z</time></trkpt><trkpt lat="44.4887863" lon="9.0774379"><ele>873.0</ele><time>2026-03-22T15:31:50.285Z</time></trkpt><trkpt lat="44.4888573" lon="9.0773029"><ele>873.0</ele><time>2026-03-22T15:31:51.284Z</time></trkpt><trkpt lat="44.4889188" lon="9.077176"><ele>873.0</ele><time>2026-03-22T15:31:52.283Z</time></trkpt><trkpt lat="44.4889702" lon="9.0770501"><ele>874.3333333333334</ele><time>2026-03-22T15:31:53.285Z</time></trkpt><trkpt lat="44.4890188" lon="9.0769425"><ele>875.6666666666667</ele><time>2026-03-22T15:31:54.283Z</time></trkpt><trkpt lat="44.4890653" lon="9.0768458"><ele>877.0</ele><time>2026-03-22T15:31:55.285Z</time></trkpt><trkpt lat="44.4891119" lon="9.0767706"><ele>878.3333333333334</ele><time>2026-03-22T15:31:56.284Z</time></trkpt><trkpt lat="44.4891716" lon="9.0766308"><ele>879.6666666666667</ele><time>2026-03-22T15:31:58.284Z</time></trkpt><trkpt lat="44.489176" lon="9.0765239"><ele>881.0</ele><time>2026-03-22T15:31:59.285Z</time></trkpt><trkpt lat="44.4891754" lon="9.0764336"><ele>877.1999999999999</ele><time>2026-03-22T15:32:00.284Z</time></trkpt><trkpt lat="44.4892178" lon="9.0763121"><ele>873.3999999999999</ele><time>2026-03-22T15:32:02.284Z</time></trkpt><trkpt lat="44.4892902" lon="9.0761737"><ele>869.6</ele><time>2026-03-22T15:32:04.284Z</time></trkpt><trkpt lat="44.4893479" lon="9.0761017"><ele>865.8</ele><time>2026-03-22T15:32:05.284Z</time></trkpt><trkpt lat="44.4894157" lon="9.0760356"><ele>862.0</ele><time>2026-03-22T15:32:06.284Z</time></trkpt><trkpt lat="44.4894744" lon="9.075971"><ele>862.0</ele><time>2026-03-22T15:32:07.283Z</time></trkpt><trkpt lat="44.48953" lon="9.0759189"><ele>862.0</ele><time>2026-03-22T15:32:08.284Z</time></trkpt><trkpt lat="44.4895781" lon="9.0758594"><ele>862.0</ele><time>2026-03-22T15:32:09.284Z</time></trkpt><trkpt lat="44.4896005" lon="9.0757168"><ele>862.0</ele><time>2026-03-22T15:32:11.284Z</time></trkpt><trkpt lat="44.4895906" lon="9.0756261"><ele>862.0</ele><time>2026-03-22T15:32:12.283Z</time></trkpt><trkpt lat="44.4895791" lon="9.075527"><ele>862.0</ele><time>2026-03-22T15:32:13.283Z</time></trkpt><trkpt lat="44.4895778" lon="9.0754198"><ele>862.0</ele><time>2026-03-22T15:32:14.284Z</time></trkpt><trkpt lat="44.4895777" lon="9.0753022"><ele>860.3333333333333</ele><time>2026-03-22T15:32:15.284Z</time></trkpt><trkpt lat="44.489587" lon="9.0751934"><ele>858.6666666666666</ele><time>2026-03-22T15:32:16.284Z</time></trkpt><trkpt lat="44.4895856" lon="9.0751026"><ele>857.0</ele><time>2026-03-22T15:32:17.285Z</time></trkpt><trkpt lat="44.489561" lon="9.0750211"><ele>855.3333333333333</ele><time>2026-03-22T15:32:18.284Z</time></trkpt><trkpt lat="44.4895408" lon="9.0749342"><ele>853.6666666666666</ele><time>2026-03-22T15:32:19.284Z</time></trkpt><trkpt lat="44.4895303" lon="9.074786"><ele>852.0</ele><time>2026-03-22T15:32:21.284Z</time></trkpt><trkpt lat="44.4895658" lon="9.0746308"><ele>849.8</ele><time>2026-03-22T15:32:23.284Z</time></trkpt><trkpt lat="44.4896366" lon="9.0745354"><ele>847.6</ele><time>2026-03-22T15:32:25.283Z</time></trkpt><trkpt lat="44.489769" lon="9.0744944"><ele>845.4</ele><time>2026-03-22T15:32:27.284Z</time></trkpt><trkpt lat="44.489853" lon="9.0744725"><ele>843.1999999999999</ele><time>2026-03-22T15:32:28.284Z</time></trkpt><trkpt lat="44.4899207" lon="9.0744536"><ele>841.0</ele><time>2026-03-22T15:32:29.284Z</time></trkpt><trkpt lat="44.4900156" lon="9.0744863"><ele>841.0</ele><time>2026-03-22T15:32:31.284Z</time></trkpt><trkpt lat="44.4901132" lon="9.0745548"><ele>841.0</ele><time>2026-03-22T15:32:33.285Z</time></trkpt><trkpt lat="44.4902198" lon="9.0746178"><ele>841.0</ele><time>2026-03-22T15:32:35.286Z</time></trkpt><trkpt lat="44.4903111" lon="9.0747538"><ele>841.0</ele><time>2026-03-22T15:32:37.284Z</time></trkpt><trkpt lat="44.4903619" lon="9.0748138"><ele>841.0</ele><time>2026-03-22T15:32:38.285Z</time></trkpt><trkpt lat="44.490499" lon="9.0748603"><ele>840.8333333333333</ele><time>2026-03-22T15:32:40.284Z</time></trkpt><trkpt lat="44.4905692" lon="9.0748512"><ele>840.6666666666666</ele><time>2026-03-22T15:32:41.285Z</time></trkpt><trkpt lat="44.4906368" lon="9.0748367"><ele>840.5</ele><time>2026-03-22T15:32:42.285Z</time></trkpt><trkpt lat="44.4906935" lon="9.0747791"><ele>840.3333333333333</ele><time>2026-03-22T15:32:43.285Z</time></trkpt><trkpt lat="44.4908024" lon="9.0747453"><ele>840.1666666666666</ele><time>2026-03-22T15:32:45.285Z</time></trkpt><trkpt lat="44.4908706" lon="9.0747234"><ele>840.0</ele><time>2026-03-22T15:32:46.286Z</time></trkpt><trkpt lat="44.4909426" lon="9.0746915"><ele>840.0</ele><time>2026-03-22T15:32:47.284Z</time></trkpt><trkpt lat="44.491005" lon="9.0746365"><ele>840.0</ele><time>2026-03-22T15:32:48.284Z</time></trkpt><trkpt lat="44.4910675" lon="9.0745692"><ele>840.0</ele><time>2026-03-22T15:32:49.286Z</time></trkpt><trkpt lat="44.4911191" lon="9.0744485"><ele>840.0</ele><time>2026-03-22T15:32:50.284Z</time></trkpt><trkpt lat="44.4911766" lon="9.0743622"><ele>840.0</ele><time>2026-03-22T15:32:51.285Z</time></trkpt><trkpt lat="44.4912117" lon="9.0742095"><ele>844.6</ele><time>2026-03-22T15:32:53.284Z</time></trkpt><trkpt lat="44.4912602" lon="9.0740888"><ele>849.2</ele><time>2026-03-22T15:32:55.285Z</time></trkpt><trkpt lat="44.491356" lon="9.0739652"><ele>853.8</ele><time>2026-03-22T15:32:57.286Z</time></trkpt><trkpt lat="44.4913901" lon="9.073808"><ele>858.4</ele><time>2026-03-22T15:32:59.286Z</time></trkpt><trkpt lat="44.49137" lon="9.0736802"><ele>863.0</ele><time>2026-03-22T15:33:01.285Z</time></trkpt><trkpt lat="44.4913408" lon="9.073591"><ele>863.0000000000001</ele><time>2026-03-22T15:33:02.285Z</time></trkpt><trkpt lat="44.4913153" lon="9.0735075"><ele>863.0</ele><time>2026-03-22T15:33:03.286Z</time></trkpt><trkpt lat="44.4913028" lon="9.0733823"><ele>863.0</ele><time>2026-03-22T15:33:05.285Z</time></trkpt><trkpt lat="44.4913392" lon="9.0732623"><ele>863.0</ele><time>2026-03-22T15:33:07.285Z</time></trkpt><trkpt lat="44.491376" lon="9.0731709"><ele>863.0000000000001</ele><time>2026-03-22T15:33:08.285Z</time></trkpt><trkpt lat="44.4914167" lon="9.0730898"><ele>863.0</ele><time>2026-03-22T15:33:09.285Z</time></trkpt><trkpt lat="44.4914644" lon="9.073002"><ele>860.0</ele><time>2026-03-22T15:33:10.285Z</time></trkpt><trkpt lat="44.4915041" lon="9.072906"><ele>857.0</ele><time>2026-03-22T15:33:11.285Z</time></trkpt><trkpt lat="44.4915287" lon="9.0728008"><ele>854.0</ele><time>2026-03-22T15:33:12.285Z</time></trkpt><trkpt lat="44.4915482" lon="9.0726277"><ele>851.0</ele><time>2026-03-22T15:33:14.284Z</time></trkpt><trkpt lat="44.4915329" lon="9.0725256"><ele>848.0</ele><time>2026-03-22T15:33:15.285Z</time></trkpt><trkpt lat="44.4915638" lon="9.0723488"><ele>847.2</ele><time>2026-03-22T15:33:17.284Z</time></trkpt><trkpt lat="44.4915922" lon="9.0722497"><ele>846.4</ele><time>2026-03-22T15:33:18.284Z</time></trkpt><trkpt lat="44.4915881" lon="9.0721598"><ele>845.6</ele><time>2026-03-22T15:33:19.285Z</time></trkpt><trkpt lat="44.4916041" lon="9.0720075"><ele>844.8000000000001</ele><time>2026-03-22T15:33:21.284Z</time></trkpt><trkpt lat="44.4916401" lon="9.0718559"><ele>844.0</ele><time>2026-03-22T15:33:23.285Z</time></trkpt><trkpt lat="44.4916368" lon="9.0717269"><ele>845.4000000000001</ele><time>2026-03-22T15:33:25.285Z</time></trkpt><trkpt lat="44.4915842" lon="9.0716063"><ele>846.8</ele><time>2026-03-22T15:33:27.285Z</time></trkpt><trkpt lat="44.491528" lon="9.0715242"><ele>848.2</ele><time>2026-03-22T15:33:28.286Z</time></trkpt><trkpt lat="44.4914734" lon="9.0714765"><ele>849.5999999999999</ele><time>2026-03-22T15:33:29.285Z</time></trkpt><trkpt lat="44.49139" lon="9.0713906"><ele>851.0</ele><time>2026-03-22T15:33:31.285Z</time></trkpt><trkpt lat="44.4913236" lon="9.0712732"><ele>851.0</ele><time>2026-03-22T15:33:33.285Z</time></trkpt><trkpt lat="44.4912785" lon="9.0711539"><ele>851.0</ele><time>2026-03-22T15:33:35.285Z</time></trkpt><trkpt lat="44.4912409" lon="9.0709697"><ele>851.0</ele><time>2026-03-22T15:33:37.286Z</time></trkpt><trkpt lat="44.4911978" lon="9.0708619"><ele>851.0</ele><time>2026-03-22T15:33:38.285Z</time></trkpt><trkpt lat="44.4911664" lon="9.0707723"><ele>851.0</ele><time>2026-03-22T15:33:39.285Z</time></trkpt><trkpt lat="44.4911204" lon="9.0707076"><ele>844.6666666666667</ele><time>2026-03-22T15:33:40.285Z</time></trkpt><trkpt lat="44.491073" lon="9.0706234"><ele>838.3333333333334</ele><time>2026-03-22T15:33:41.286Z</time></trkpt><trkpt lat="44.4910234" lon="9.0705207"><ele>832.0</ele><time>2026-03-22T15:33:42.284Z</time></trkpt><trkpt lat="44.4909759" lon="9.0704097"><ele>825.6666666666667</ele><time>2026-03-22T15:33:43.284Z</time></trkpt><trkpt lat="44.4909408" lon="9.0703124"><ele>819.3333333333334</ele><time>2026-03-22T15:33:44.285Z</time></trkpt><trkpt lat="44.4909009" lon="9.0702214"><ele>813.0</ele><time>2026-03-22T15:33:45.285Z</time></trkpt><trkpt lat="44.4908692" lon="9.0701293"><ele>813.0</ele><time>2026-03-22T15:33:46.285Z</time></trkpt><trkpt lat="44.4908459" lon="9.0700206"><ele>813.0</ele><time>2026-03-22T15:33:47.285Z</time></trkpt><trkpt lat="44.4908101" lon="9.0699099"><ele>813.0</ele><time>2026-03-22T15:33:48.285Z</time></trkpt><trkpt lat="44.490782" lon="9.0698047"><ele>813.0</ele><time>2026-03-22T15:33:49.284Z</time></trkpt><trkpt lat="44.4907642" lon="9.069713"><ele>813.0</ele><time>2026-03-22T15:33:50.285Z</time></trkpt><trkpt lat="44.4907575" lon="9.0695327"><ele>813.0</ele><time>2026-03-22T15:33:52.285Z</time></trkpt><trkpt lat="44.49075" lon="9.0693642"><ele>811.3333333333334</ele><time>2026-03-22T15:33:54.285Z</time></trkpt><trkpt lat="44.4907472" lon="9.0692317"><ele>809.6666666666667</ele><time>2026-03-22T15:33:56.285Z</time></trkpt><trkpt lat="44.4907374" lon="9.069124"><ele>808.0</ele><time>2026-03-22T15:33:59.286Z</time></trkpt><trkpt lat="44.4906627" lon="9.0691697"><ele>806.3333333333334</ele><time>2026-03-22T15:34:03.285Z</time></trkpt><trkpt lat="44.4906293" lon="9.0692562"><ele>804.6666666666667</ele><time>2026-03-22T15:34:05.286Z</time></trkpt><trkpt lat="44.4905959" lon="9.0693628"><ele>803.0</ele><time>2026-03-22T15:34:07.285Z</time></trkpt><trkpt lat="44.4905801" lon="9.0694893"><ele>803.0</ele><time>2026-03-22T15:34:09.286Z</time></trkpt><trkpt lat="44.4905748" lon="9.0696252"><ele>803.0</ele><time>2026-03-22T15:34:11.285Z</time></trkpt><trkpt lat="44.4905629" lon="9.0697506"><ele>803.0</ele><time>2026-03-22T15:34:13.284Z</time></trkpt><trkpt lat="44.4905511" lon="9.0698531"><ele>803.0</ele><time>2026-03-22T15:34:15.285Z</time></trkpt><trkpt lat="44.4905237" lon="9.0699729"><ele>803.0</ele><time>2026-03-22T15:34:18.285Z</time></trkpt><trkpt lat="44.4905651" lon="9.0698416"><ele>803.0000000000001</ele><time>2026-03-22T15:34:25.285Z</time></trkpt><trkpt lat="44.4905775" lon="9.0696756"><ele>803.0</ele><time>2026-03-22T15:34:27.286Z</time></trkpt><trkpt lat="44.4905882" lon="9.0695698"><ele>803.0</ele><time>2026-03-22T15:34:28.286Z</time></trkpt><trkpt lat="44.4905958" lon="9.0694745"><ele>803.0</ele><time>2026-03-22T15:34:29.286Z</time></trkpt><trkpt lat="44.4906058" lon="9.069378"><ele>803.0000000000001</ele><time>2026-03-22T15:34:30.285Z</time></trkpt><trkpt lat="44.4906267" lon="9.0692871"><ele>803.0</ele><time>2026-03-22T15:34:31.285Z</time></trkpt><trkpt lat="44.4906695" lon="9.0691529"><ele>803.0</ele><time>2026-03-22T15:34:33.285Z</time></trkpt><trkpt lat="44.4907191" lon="9.0690824"><ele>803.0</ele><time>2026-03-22T15:34:36.284Z</time></trkpt><trkpt lat="44.4907434" lon="9.0692293"><ele>803.0</ele><time>2026-03-22T15:34:40.284Z</time></trkpt><trkpt lat="44.4907428" lon="9.0694268"><ele>803.0</ele><time>2026-03-22T15:34:42.284Z</time></trkpt><trkpt lat="44.4907449" lon="9.0695505"><ele>803.0</ele><time>2026-03-22T15:34:43.285Z</time></trkpt><trkpt lat="44.4907529" lon="9.0696679"><ele>803.0</ele><time>2026-03-22T15:34:44.285Z</time></trkpt><trkpt lat="44.4907702" lon="9.069781"><ele>803.0</ele><time>2026-03-22T15:34:45.284Z</time></trkpt><trkpt lat="44.4908022" lon="9.0699001"><ele>803.0</ele><time>2026-03-22T15:34:46.285Z</time></trkpt><trkpt lat="44.4908387" lon="9.0700215"><ele>803.0</ele><time>2026-03-22T15:34:47.284Z</time></trkpt><trkpt lat="44.4908736" lon="9.0701422"><ele>803.0</ele><time>2026-03-22T15:34:48.286Z</time></trkpt><trkpt lat="44.4909167" lon="9.0702628"><ele>803.5999999999999</ele><time>2026-03-22T15:34:49.285Z</time></trkpt><trkpt lat="44.4909622" lon="9.0703755"><ele>804.1999999999999</ele><time>2026-03-22T15:34:50.285Z</time></trkpt><trkpt lat="44.4910062" lon="9.0704798"><ele>804.8</ele><time>2026-03-22T15:34:51.285Z</time></trkpt><trkpt lat="44.4910458" lon="9.0705628"><ele>805.4</ele><time>2026-03-22T15:34:52.285Z</time></trkpt><trkpt lat="44.4911057" lon="9.0707064"><ele>806.0</ele><time>2026-03-22T15:34:54.285Z</time></trkpt><trkpt lat="44.4911642" lon="9.0708413"><ele>806.0</ele><time>2026-03-22T15:34:56.284Z</time></trkpt><trkpt lat="44.4912182" lon="9.0709869"><ele>806.0</ele><time>2026-03-22T15:34:58.285Z</time></trkpt><trkpt lat="44.4912548" lon="9.0711561"><ele>806.0</ele><time>2026-03-22T15:35:00.285Z</time></trkpt><trkpt lat="44.4913072" lon="9.071291"><ele>806.0</ele><time>2026-03-22T15:35:02.285Z</time></trkpt><trkpt lat="44.4913973" lon="9.0713893"><ele>813.5999999999999</ele><time>2026-03-22T15:35:04.284Z</time></trkpt><trkpt lat="44.4914847" lon="9.0714812"><ele>821.2</ele><time>2026-03-22T15:35:06.284Z</time></trkpt><trkpt lat="44.4915642" lon="9.0716027"><ele>828.8</ele><time>2026-03-22T15:35:08.285Z</time></trkpt><trkpt lat="44.4916264" lon="9.0717404"><ele>836.4000000000001</ele><time>2026-03-22T15:35:10.284Z</time></trkpt><trkpt lat="44.4916426" lon="9.0718655"><ele>844.0</ele><time>2026-03-22T15:35:12.285Z</time></trkpt><trkpt lat="44.4915941" lon="9.0719929"><ele>843.9999999999999</ele><time>2026-03-22T15:35:14.285Z</time></trkpt><trkpt lat="44.4915632" lon="9.0721346"><ele>844.0</ele><time>2026-03-22T15:35:16.285Z</time></trkpt><trkpt lat="44.4915448" lon="9.0722953"><ele>844.0</ele><time>2026-03-22T15:35:18.285Z</time></trkpt><trkpt lat="44.4915153" lon="9.0723987"><ele>844.0</ele><time>2026-03-22T15:35:19.284Z</time></trkpt><trkpt lat="44.4915013" lon="9.0724889"><ele>843.9999999999999</ele><time>2026-03-22T15:35:20.284Z</time></trkpt><trkpt lat="44.4914955" lon="9.072585"><ele>844.0</ele><time>2026-03-22T15:35:21.285Z</time></trkpt><trkpt lat="44.4914953" lon="9.0726777"><ele>844.8000000000001</ele><time>2026-03-22T15:35:22.285Z</time></trkpt><trkpt lat="44.4915013" lon="9.0727751"><ele>845.6</ele><time>2026-03-22T15:35:23.286Z</time></trkpt><trkpt lat="44.491489" lon="9.072929"><ele>846.4</ele><time>2026-03-22T15:35:25.284Z</time></trkpt><trkpt lat="44.4914428" lon="9.0730187"><ele>847.2</ele><time>2026-03-22T15:35:26.285Z</time></trkpt><trkpt lat="44.4913688" lon="9.0731739"><ele>848.0</ele><time>2026-03-22T15:35:28.285Z</time></trkpt><trkpt lat="44.4913211" lon="9.0732509"><ele>850.5000000000001</ele><time>2026-03-22T15:35:29.284Z</time></trkpt><trkpt lat="44.4913017" lon="9.0733373"><ele>853.0</ele><time>2026-03-22T15:35:30.285Z</time></trkpt><trkpt lat="44.4912607" lon="9.0734341"><ele>855.5</ele><time>2026-03-22T15:35:32.284Z</time></trkpt><trkpt lat="44.4912969" lon="9.0735749"><ele>858.0</ele><time>2026-03-22T15:35:34.285Z</time></trkpt><trkpt lat="44.4913317" lon="9.07366"><ele>860.5000000000001</ele><time>2026-03-22T15:35:35.284Z</time></trkpt><trkpt lat="44.4913508" lon="9.0737975"><ele>863.0</ele><time>2026-03-22T15:35:37.285Z</time></trkpt><trkpt lat="44.4913081" lon="9.0739756"><ele>863.0000000000001</ele><time>2026-03-22T15:35:39.285Z</time></trkpt><trkpt lat="44.491269" lon="9.0740521"><ele>863.0</ele><time>2026-03-22T15:35:40.284Z</time></trkpt><trkpt lat="44.4912227" lon="9.0741218"><ele>863.0</ele><time>2026-03-22T15:35:41.285Z</time></trkpt><trkpt lat="44.4911908" lon="9.0742618"><ele>863.0</ele><time>2026-03-22T15:35:43.284Z</time></trkpt><trkpt lat="44.4911671" lon="9.0743519"><ele>863.0</ele><time>2026-03-22T15:35:44.285Z</time></trkpt><trkpt lat="44.491138" lon="9.0744381"><ele>863.0000000000001</ele><time>2026-03-22T15:35:45.285Z</time></trkpt><trkpt lat="44.491097" lon="9.0745159"><ele>863.0</ele><time>2026-03-22T15:35:46.286Z</time></trkpt><trkpt lat="44.4910327" lon="9.0745912"><ele>858.4</ele><time>2026-03-22T15:35:47.284Z</time></trkpt><trkpt lat="44.4909537" lon="9.0746854"><ele>853.8</ele><time>2026-03-22T15:35:48.285Z</time></trkpt><trkpt lat="44.4908846" lon="9.0747443"><ele>849.2</ele><time>2026-03-22T15:35:49.285Z</time></trkpt><trkpt lat="44.4907698" lon="9.0748135"><ele>844.6</ele><time>2026-03-22T15:35:51.285Z</time></trkpt><trkpt lat="44.490655" lon="9.0748344"><ele>840.0</ele><time>2026-03-22T15:35:53.285Z</time></trkpt><trkpt lat="44.4905959" lon="9.0748688"><ele>840.0</ele><time>2026-03-22T15:35:54.285Z</time></trkpt><trkpt lat="44.490532" lon="9.0748804"><ele>840.0</ele><time>2026-03-22T15:35:55.285Z</time></trkpt><trkpt lat="44.4904218" lon="9.0749142"><ele>840.0</ele><time>2026-03-22T15:35:57.285Z</time></trkpt><trkpt lat="44.4903255" lon="9.0747721"><ele>840.0</ele><time>2026-03-22T15:35:59.286Z</time></trkpt><trkpt lat="44.4902685" lon="9.0746856"><ele>840.0</ele><time>2026-03-22T15:36:00.285Z</time></trkpt><trkpt lat="44.4901706" lon="9.0745908"><ele>840.2</ele><time>2026-03-22T15:36:02.285Z</time></trkpt><trkpt lat="44.4901064" lon="9.0745512"><ele>840.4</ele><time>2026-03-22T15:36:03.284Z</time></trkpt><trkpt lat="44.4900442" lon="9.0745272"><ele>840.5999999999999</ele><time>2026-03-22T15:36:04.285Z</time></trkpt><trkpt lat="44.4899661" lon="9.0744661"><ele>840.8</ele><time>2026-03-22T15:36:05.285Z</time></trkpt><trkpt lat="44.4898351" lon="9.0744886"><ele>841.0</ele><time>2026-03-22T15:36:07.284Z</time></trkpt><trkpt lat="44.4897374" lon="9.0745294"><ele>840.9999999999999</ele><time>2026-03-22T15:36:08.285Z</time></trkpt><trkpt lat="44.4896662" lon="9.0745797"><ele>841.0</ele><time>2026-03-22T15:36:09.284Z</time></trkpt><trkpt lat="44.4896036" lon="9.0746174"><ele>841.0</ele><time>2026-03-22T15:36:10.284Z</time></trkpt><trkpt lat="44.4895465" lon="9.0747189"><ele>841.0</ele><time>2026-03-22T15:36:12.284Z</time></trkpt><trkpt lat="44.4895304" lon="9.0748895"><ele>840.9999999999999</ele><time>2026-03-22T15:36:14.286Z</time></trkpt><trkpt lat="44.489545" lon="9.0749754"><ele>841.0</ele><time>2026-03-22T15:36:15.285Z</time></trkpt><trkpt lat="44.4895623" lon="9.0750606"><ele>843.1999999999999</ele><time>2026-03-22T15:36:16.285Z</time></trkpt><trkpt lat="44.4895683" lon="9.0752601"><ele>845.4</ele><time>2026-03-22T15:36:18.285Z</time></trkpt><trkpt lat="44.4895565" lon="9.0753833"><ele>847.6</ele><time>2026-03-22T15:36:19.286Z</time></trkpt><trkpt lat="44.4895507" lon="9.0754922"><ele>849.8</ele><time>2026-03-22T15:36:20.285Z</time></trkpt><trkpt lat="44.489557" lon="9.0755937"><ele>852.0</ele><time>2026-03-22T15:36:21.284Z</time></trkpt><trkpt lat="44.4895615" lon="9.0757048"><ele>853.6666666666666</ele><time>2026-03-22T15:36:22.285Z</time></trkpt><trkpt lat="44.4895621" lon="9.075802"><ele>855.3333333333333</ele><time>2026-03-22T15:36:23.285Z</time></trkpt><trkpt lat="44.4895162" lon="9.0759303"><ele>857.0</ele><time>2026-03-22T15:36:25.285Z</time></trkpt><trkpt lat="44.489454" lon="9.0759972"><ele>858.6666666666666</ele><time>2026-03-22T15:36:28.285Z</time></trkpt><trkpt lat="44.4893664" lon="9.0761009"><ele>860.3333333333333</ele><time>2026-03-22T15:36:30.284Z</time></trkpt><trkpt lat="44.489314" lon="9.0761641"><ele>862.0</ele><time>2026-03-22T15:36:31.285Z</time></trkpt><trkpt lat="44.4892602" lon="9.0762489"><ele>862.0</ele><time>2026-03-22T15:36:32.285Z</time></trkpt><trkpt lat="44.4892119" lon="9.0763298"><ele>862.0</ele><time>2026-03-22T15:36:33.286Z</time></trkpt><trkpt lat="44.4891794" lon="9.0764167"><ele>862.0</ele><time>2026-03-22T15:36:34.285Z</time></trkpt><trkpt lat="44.4891609" lon="9.0765126"><ele>862.0</ele><time>2026-03-22T15:36:35.286Z</time></trkpt><trkpt lat="44.489156" lon="9.0766096"><ele>862.0</ele><time>2026-03-22T15:36:36.284Z</time></trkpt><trkpt lat="44.4891387" lon="9.0767066"><ele>862.0</ele><time>2026-03-22T15:36:37.285Z</time></trkpt><trkpt lat="44.4891012" lon="9.0767833"><ele>862.0</ele><time>2026-03-22T15:36:38.285Z</time></trkpt><trkpt lat="44.4890603" lon="9.0768579"><ele>865.8</ele><time>2026-03-22T15:36:39.284Z</time></trkpt><trkpt lat="44.4890169" lon="9.0769415"><ele>869.6</ele><time>2026-03-22T15:36:40.284Z</time></trkpt><trkpt lat="44.4889782" lon="9.077047"><ele>873.3999999999999</ele><time>2026-03-22T15:36:41.284Z</time></trkpt><trkpt lat="44.488932" lon="9.0771585"><ele>877.1999999999999</ele><time>2026-03-22T15:36:42.286Z</time></trkpt><trkpt lat="44.4888808" lon="9.0772811"><ele>881.0</ele><time>2026-03-22T15:36:43.284Z</time></trkpt><trkpt lat="44.4888288" lon="9.077406"><ele>879.4</ele><time>2026-03-22T15:36:44.285Z</time></trkpt><trkpt lat="44.4887491" lon="9.0775087"><ele>877.8</ele><time>2026-03-22T15:36:45.285Z</time></trkpt><trkpt lat="44.488688" lon="9.0776203"><ele>876.1999999999999</ele><time>2026-03-22T15:36:46.285Z</time></trkpt><trkpt lat="44.4886346" lon="9.0777201"><ele>874.5999999999999</ele><time>2026-03-22T15:36:47.285Z</time></trkpt><trkpt lat="44.4886028" lon="9.0778972"><ele>873.0</ele><time>2026-03-22T15:36:49.286Z</time></trkpt><trkpt lat="44.4885497" lon="9.0779878"><ele>873.0</ele><time>2026-03-22T15:36:50.286Z</time></trkpt><trkpt lat="44.4884921" lon="9.0780915"><ele>873.0</ele><time>2026-03-22T15:36:51.284Z</time></trkpt><trkpt lat="44.4884275" lon="9.0781532"><ele>873.0</ele><time>2026-03-22T15:36:52.285Z</time></trkpt><trkpt lat="44.4883752" lon="9.0782279"><ele>873.0</ele><time>2026-03-22T15:36:53.285Z</time></trkpt><trkpt lat="44.4883148" lon="9.0782738"><ele>873.0</ele><time>2026-03-22T15:36:54.284Z</time></trkpt><trkpt lat="44.4882194" lon="9.0782447"><ele>873.0</ele><time>2026-03-22T15:36:56.285Z</time></trkpt><trkpt lat="44.4881494" lon="9.0782315"><ele>873.0</ele><time>2026-03-22T15:36:57.285Z</time></trkpt><trkpt lat="44.4880862" lon="9.0782364"><ele>873.0</ele><time>2026-03-22T15:36:58.284Z</time></trkpt><trkpt lat="44.4880263" lon="9.078266"><ele>873.0</ele><time>2026-03-22T15:36:59.285Z</time></trkpt><trkpt lat="44.4879744" lon="9.0783198"><ele>873.0</ele><time>2026-03-22T15:37:00.285Z</time></trkpt><trkpt lat="44.4878705" lon="9.0783983"><ele>873.0</ele><time>2026-03-22T15:37:02.285Z</time></trkpt><trkpt lat="44.4878032" lon="9.0784137"><ele>873.0</ele><time>2026-03-22T15:37:03.284Z</time></trkpt><trkpt lat="44.4877005" lon="9.0784078"><ele>877.5</ele><time>2026-03-22T15:37:04.284Z</time></trkpt><trkpt lat="44.4876356" lon="9.0784494"><ele>882.0</ele><time>2026-03-22T15:37:05.285Z</time></trkpt><trkpt lat="44.4875618" lon="9.0785104"><ele>886.5</ele><time>2026-03-22T15:37:06.286Z</time></trkpt><trkpt lat="44.48749" lon="9.0785335"><ele>891.0</ele><time>2026-03-22T15:37:07.285Z</time></trkpt><trkpt lat="44.4873805" lon="9.0785216"><ele>895.5</ele><time>2026-03-22T15:37:09.285Z</time></trkpt><trkpt lat="44.4872905" lon="9.0784632"><ele>900.0</ele><time>2026-03-22T15:37:10.285Z</time></trkpt><trkpt lat="44.4872142" lon="9.0784205"><ele>900.0</ele><time>2026-03-22T15:37:11.284Z</time></trkpt><trkpt lat="44.4871571" lon="9.0783683"><ele>900.0</ele><time>2026-03-22T15:37:12.286Z</time></trkpt><trkpt lat="44.4871163" lon="9.0782828"><ele>900.0</ele><time>2026-03-22T15:37:13.285Z</time></trkpt><trkpt lat="44.4870192" lon="9.0782867"><ele>900.0</ele><time>2026-03-22T15:37:15.284Z</time></trkpt><trkpt lat="44.4868973" lon="9.0783914"><ele>900.0</ele><time>2026-03-22T15:37:17.285Z</time></trkpt><trkpt lat="44.4867938" lon="9.0784935"><ele>901.4</ele><time>2026-03-22T15:37:19.286Z</time></trkpt><trkpt lat="44.4867315" lon="9.0785639"><ele>902.8</ele><time>2026-03-22T15:37:20.284Z</time></trkpt><trkpt lat="44.4866235" lon="9.0786737"><ele>904.2</ele><time>2026-03-22T15:37:22.284Z</time></trkpt><trkpt lat="44.4865156" lon="9.0786537"><ele>905.6</ele><time>2026-03-22T15:37:24.286Z</time></trkpt><trkpt lat="44.486447" lon="9.0785916"><ele>907.0</ele><time>2026-03-22T15:37:25.285Z</time></trkpt><trkpt lat="44.4863992" lon="9.0785194"><ele>906.9999999999999</ele><time>2026-03-22T15:37:26.285Z</time></trkpt><trkpt lat="44.4863476" lon="9.0784207"><ele>907.0</ele><time>2026-03-22T15:37:27.285Z</time></trkpt><trkpt lat="44.4862969" lon="9.0783214"><ele>907.0</ele><time>2026-03-22T15:37:28.285Z</time></trkpt><trkpt lat="44.4862342" lon="9.0782518"><ele>907.0</ele><time>2026-03-22T15:37:29.285Z</time></trkpt><trkpt lat="44.4861728" lon="9.0781922"><ele>906.9999999999999</ele><time>2026-03-22T15:37:30.285Z</time></trkpt><trkpt lat="44.4860985" lon="9.0781074"><ele>907.0</ele><time>2026-03-22T15:37:31.284Z</time></trkpt><trkpt lat="44.4860137" lon="9.0780577"><ele>905.4999999999999</ele><time>2026-03-22T15:37:32.284Z</time></trkpt><trkpt lat="44.4859344" lon="9.0779612"><ele>904.0</ele><time>2026-03-22T15:37:33.285Z</time></trkpt><trkpt lat="44.4858716" lon="9.0778893"><ele>902.5</ele><time>2026-03-22T15:37:34.285Z</time></trkpt><trkpt lat="44.4857873" lon="9.0778836"><ele>901.0</ele><time>2026-03-22T15:37:36.284Z</time></trkpt><trkpt lat="44.4857249" lon="9.077994"><ele>899.4999999999999</ele><time>2026-03-22T15:37:38.285Z</time></trkpt><trkpt lat="44.4857174" lon="9.0780927"><ele>898.0</ele><time>2026-03-22T15:37:39.285Z</time></trkpt><trkpt lat="44.4857293" lon="9.0782106"><ele>900.8333333333333</ele><time>2026-03-22T15:37:40.286Z</time></trkpt><trkpt lat="44.4857476" lon="9.0783311"><ele>903.6666666666666</ele><time>2026-03-22T15:37:41.285Z</time></trkpt><trkpt lat="44.4857506" lon="9.0784508"><ele>906.5</ele><time>2026-03-22T15:37:42.285Z</time></trkpt><trkpt lat="44.485729" lon="9.0785668"><ele>909.3333333333333</ele><time>2026-03-22T15:37:43.284Z</time></trkpt><trkpt lat="44.4857063" lon="9.0786867"><ele>912.1666666666666</ele><time>2026-03-22T15:37:44.285Z</time></trkpt><trkpt lat="44.4856644" lon="9.0787722"><ele>915.0</ele><time>2026-03-22T15:37:45.284Z</time></trkpt><trkpt lat="44.4856364" lon="9.0789437"><ele>915.0</ele><time>2026-03-22T15:37:47.286Z</time></trkpt><trkpt lat="44.4856147" lon="9.0790419"><ele>915.0</ele><time>2026-03-22T15:37:48.284Z</time></trkpt><trkpt lat="44.4855895" lon="9.0791945"><ele>915.0</ele><time>2026-03-22T15:37:50.286Z</time></trkpt><trkpt lat="44.4855991" lon="9.0792875"><ele>915.0</ele><time>2026-03-22T15:37:51.286Z</time></trkpt><trkpt lat="44.4856248" lon="9.0793973"><ele>915.0</ele><time>2026-03-22T15:37:52.285Z</time></trkpt><trkpt lat="44.4856666" lon="9.0795244"><ele>915.0</ele><time>2026-03-22T15:37:53.284Z</time></trkpt><trkpt lat="44.4857067" lon="9.0796582"><ele>916.6666666666666</ele><time>2026-03-22T15:37:54.285Z</time></trkpt><trkpt lat="44.4857322" lon="9.0797836"><ele>918.3333333333333</ele><time>2026-03-22T15:37:55.285Z</time></trkpt><trkpt lat="44.4857443" lon="9.0798936"><ele>920.0</ele><time>2026-03-22T15:37:56.285Z</time></trkpt><trkpt lat="44.4857452" lon="9.0799995"><ele>921.6666666666666</ele><time>2026-03-22T15:37:57.284Z</time></trkpt><trkpt lat="44.4857228" lon="9.0801148"><ele>923.3333333333333</ele><time>2026-03-22T15:37:58.285Z</time></trkpt><trkpt lat="44.4856933" lon="9.0802432"><ele>925.0</ele><time>2026-03-22T15:37:59.285Z</time></trkpt><trkpt lat="44.4856609" lon="9.080389"><ele>926.4</ele><time>2026-03-22T15:38:00.285Z</time></trkpt><trkpt lat="44.4856258" lon="9.0805147"><ele>927.8</ele><time>2026-03-22T15:38:01.284Z</time></trkpt><trkpt lat="44.4855894" lon="9.0806211"><ele>929.2</ele><time>2026-03-22T15:38:02.285Z</time></trkpt><trkpt lat="44.4855896" lon="9.080803"><ele>930.6</ele><time>2026-03-22T15:38:04.285Z</time></trkpt><trkpt lat="44.4856107" lon="9.0809018"><ele>932.0</ele><time>2026-03-22T15:38:05.285Z</time></trkpt><trkpt lat="44.485635" lon="9.0809969"><ele>932.0000000000001</ele><time>2026-03-22T15:38:06.284Z</time></trkpt><trkpt lat="44.4856054" lon="9.0811548"><ele>932.0</ele><time>2026-03-22T15:38:08.285Z</time></trkpt><trkpt lat="44.4855782" lon="9.0812425"><ele>932.0</ele><time>2026-03-22T15:38:09.285Z</time></trkpt><trkpt lat="44.4855443" lon="9.0813404"><ele>932.0</ele><time>2026-03-22T15:38:10.285Z</time></trkpt><trkpt lat="44.4855119" lon="9.0814253"><ele>932.0000000000001</ele><time>2026-03-22T15:38:11.285Z</time></trkpt><trkpt lat="44.4854938" lon="9.0815192"><ele>932.0</ele><time>2026-03-22T15:38:12.285Z</time></trkpt><trkpt lat="44.4854759" lon="9.0816184"><ele>932.0000000000001</ele><time>2026-03-22T15:38:13.284Z</time></trkpt><trkpt lat="44.4854552" lon="9.0817253"><ele>932.0</ele><time>2026-03-22T15:38:14.286Z</time></trkpt><trkpt lat="44.4854259" lon="9.0818408"><ele>932.0</ele><time>2026-03-22T15:38:15.285Z</time></trkpt><trkpt lat="44.4853796" lon="9.0819407"><ele>932.0</ele><time>2026-03-22T15:38:16.284Z</time></trkpt><trkpt lat="44.4853252" lon="9.0820398"><ele>932.0000000000001</ele><time>2026-03-22T15:38:17.285Z</time></trkpt><trkpt lat="44.4852709" lon="9.082137"><ele>932.0</ele><time>2026-03-22T15:38:18.285Z</time></trkpt><trkpt lat="44.4852133" lon="9.0822308"><ele>931.4000000000001</ele><time>2026-03-22T15:38:19.285Z</time></trkpt><trkpt lat="44.4851518" lon="9.0823306"><ele>930.8000000000001</ele><time>2026-03-22T15:38:20.284Z</time></trkpt><trkpt lat="44.4850783" lon="9.0824131"><ele>930.2</ele><time>2026-03-22T15:38:21.284Z</time></trkpt><trkpt lat="44.4850009" lon="9.0825024"><ele>929.6</ele><time>2026-03-22T15:38:22.285Z</time></trkpt><trkpt lat="44.4849287" lon="9.0825875"><ele>929.0</ele><time>2026-03-22T15:38:23.285Z</time></trkpt><trkpt lat="44.4848627" lon="9.0826664"><ele>929.0000000000001</ele><time>2026-03-22T15:38:24.284Z</time></trkpt><trkpt lat="44.4847861" lon="9.0827575"><ele>929.0</ele><time>2026-03-22T15:38:25.285Z</time></trkpt><trkpt lat="44.4847125" lon="9.0828546"><ele>929.0</ele><time>2026-03-22T15:38:26.286Z</time></trkpt><trkpt lat="44.4846511" lon="9.0829456"><ele>929.0</ele><time>2026-03-22T15:38:27.285Z</time></trkpt><trkpt lat="44.4846069" lon="9.0830275"><ele>929.0000000000001</ele><time>2026-03-22T15:38:28.285Z</time></trkpt><trkpt lat="44.4845666" lon="9.0831269"><ele>929.0</ele><time>2026-03-22T15:38:29.284Z</time></trkpt><trkpt lat="44.484523" lon="9.0832334"><ele>928.6</ele><time>2026-03-22T15:38:30.285Z</time></trkpt><trkpt lat="44.4844543" lon="9.0833263"><ele>928.2</ele><time>2026-03-22T15:38:31.284Z</time></trkpt><trkpt lat="44.4843737" lon="9.0834257"><ele>927.8000000000001</ele><time>2026-03-22T15:38:32.284Z</time></trkpt><trkpt lat="44.4843013" lon="9.0835252"><ele>927.4000000000001</ele><time>2026-03-22T15:38:33.286Z</time></trkpt><trkpt lat="44.4842339" lon="9.0836162"><ele>927.0</ele><time>2026-03-22T15:38:34.285Z</time></trkpt><trkpt lat="44.4841657" lon="9.0837153"><ele>927.0</ele><time>2026-03-22T15:38:35.286Z</time></trkpt><trkpt lat="44.4840971" lon="9.0838348"><ele>927.0</ele><time>2026-03-22T15:38:36.286Z</time></trkpt><trkpt lat="44.4840239" lon="9.08394"><ele>927.0</ele><time>2026-03-22T15:38:37.285Z</time></trkpt><trkpt lat="44.4839616" lon="9.0839957"><ele>927.0</ele><time>2026-03-22T15:38:38.284Z</time></trkpt><trkpt lat="44.4838946" lon="9.0840274"><ele>927.0</ele><time>2026-03-22T15:38:39.284Z</time></trkpt><trkpt lat="44.4838147" lon="9.0840537"><ele>927.0</ele><time>2026-03-22T15:38:40.285Z</time></trkpt><trkpt lat="44.4837222" lon="9.0840627"><ele>925.0</ele><time>2026-03-22T15:38:41.285Z</time></trkpt><trkpt lat="44.4836182" lon="9.0840593"><ele>923.0</ele><time>2026-03-22T15:38:42.286Z</time></trkpt><trkpt lat="44.4835136" lon="9.0840388"><ele>921.0</ele><time>2026-03-22T15:38:43.285Z</time></trkpt><trkpt lat="44.4834324" lon="9.0840115"><ele>919.0</ele><time>2026-03-22T15:38:44.284Z</time></trkpt><trkpt lat="44.4833692" lon="9.0839899"><ele>917.0</ele><time>2026-03-22T15:38:45.285Z</time></trkpt><trkpt lat="44.4832864" lon="9.0840566"><ele>922.2</ele><time>2026-03-22T15:38:48.284Z</time></trkpt><trkpt lat="44.4832505" lon="9.0842353"><ele>927.4000000000001</ele><time>2026-03-22T15:38:50.284Z</time></trkpt><trkpt lat="44.4832271" lon="9.0843647"><ele>932.5999999999999</ele><time>2026-03-22T15:38:51.286Z</time></trkpt><trkpt lat="44.4831929" lon="9.084491"><ele>937.8</ele><time>2026-03-22T15:38:52.285Z</time></trkpt><trkpt lat="44.4831385" lon="9.084618"><ele>943.0</ele><time>2026-03-22T15:38:53.286Z</time></trkpt><trkpt lat="44.4830889" lon="9.0847496"><ele>943.0</ele><time>2026-03-22T15:38:54.284Z</time></trkpt><trkpt lat="44.4830412" lon="9.0848744"><ele>943.0</ele><time>2026-03-22T15:38:55.286Z</time></trkpt><trkpt lat="44.4829886" lon="9.0850028"><ele>943.0</ele><time>2026-03-22T15:38:56.284Z</time></trkpt><trkpt lat="44.4829423" lon="9.0851219"><ele>943.0</ele><time>2026-03-22T15:38:57.285Z</time></trkpt><trkpt lat="44.4828916" lon="9.0852068"><ele>943.0</ele><time>2026-03-22T15:38:58.285Z</time></trkpt><trkpt lat="44.4828144" lon="9.0852702"><ele>942.4999999999999</ele><time>2026-03-22T15:38:59.285Z</time></trkpt><trkpt lat="44.4827373" lon="9.0853402"><ele>942.0</ele><time>2026-03-22T15:39:00.285Z</time></trkpt><trkpt lat="44.4826678" lon="9.0854117"><ele>941.5</ele><time>2026-03-22T15:39:01.284Z</time></trkpt><trkpt lat="44.4826046" lon="9.0854825"><ele>941.0</ele><time>2026-03-22T15:39:02.285Z</time></trkpt><trkpt lat="44.4825484" lon="9.0855321"><ele>940.4999999999999</ele><time>2026-03-22T15:39:03.286Z</time></trkpt><trkpt lat="44.4824329" lon="9.0855781"><ele>940.0</ele><time>2026-03-22T15:39:05.285Z</time></trkpt><trkpt lat="44.4823692" lon="9.0855235"><ele>940.0</ele><time>2026-03-22T15:39:06.285Z</time></trkpt><trkpt lat="44.4823001" lon="9.0855051"><ele>940.0</ele><time>2026-03-22T15:39:07.286Z</time></trkpt><trkpt lat="44.4822268" lon="9.0854027"><ele>940.0</ele><time>2026-03-22T15:39:08.285Z</time></trkpt><trkpt lat="44.482169" lon="9.0853307"><ele>940.0</ele><time>2026-03-22T15:39:09.284Z</time></trkpt><trkpt lat="44.4820808" lon="9.0853491"><ele>940.0</ele><time>2026-03-22T15:39:11.285Z</time></trkpt><trkpt lat="44.4819649" lon="9.0854508"><ele>938.4999999999999</ele><time>2026-03-22T15:39:13.285Z</time></trkpt><trkpt lat="44.4818899" lon="9.0855091"><ele>937.0</ele><time>2026-03-22T15:39:14.285Z</time></trkpt><trkpt lat="44.4818008" lon="9.0855532"><ele>935.5</ele><time>2026-03-22T15:39:15.286Z</time></trkpt><trkpt lat="44.4817235" lon="9.0855723"><ele>934.0</ele><time>2026-03-22T15:39:16.284Z</time></trkpt><trkpt lat="44.4816604" lon="9.0855552"><ele>932.4999999999999</ele><time>2026-03-22T15:39:17.285Z</time></trkpt><trkpt lat="44.481588" lon="9.0855133"><ele>931.0</ele><time>2026-03-22T15:39:18.285Z</time></trkpt><trkpt lat="44.4815265" lon="9.0854851"><ele>930.9999999999999</ele><time>2026-03-22T15:39:19.285Z</time></trkpt><trkpt lat="44.4814629" lon="9.0854747"><ele>931.0</ele><time>2026-03-22T15:39:20.285Z</time></trkpt><trkpt lat="44.4813989" lon="9.0854754"><ele>931.0</ele><time>2026-03-22T15:39:21.286Z</time></trkpt><trkpt lat="44.4812971" lon="9.0854736"><ele>931.0</ele><time>2026-03-22T15:39:22.285Z</time></trkpt><trkpt lat="44.4812106" lon="9.0854634"><ele>930.9999999999999</ele><time>2026-03-22T15:39:23.285Z</time></trkpt><trkpt lat="44.4811002" lon="9.0853877"><ele>931.0</ele><time>2026-03-22T15:39:25.284Z</time></trkpt><trkpt lat="44.4810492" lon="9.0852946"><ele>931.9999999999999</ele><time>2026-03-22T15:39:26.286Z</time></trkpt><trkpt lat="44.4809866" lon="9.0852253"><ele>933.0</ele><time>2026-03-22T15:39:27.286Z</time></trkpt><trkpt lat="44.4808596" lon="9.0851679"><ele>934.0</ele><time>2026-03-22T15:39:29.285Z</time></trkpt><trkpt lat="44.4807825" lon="9.0851789"><ele>935.0</ele><time>2026-03-22T15:39:30.285Z</time></trkpt><trkpt lat="44.4807209" lon="9.0852114"><ele>935.9999999999999</ele><time>2026-03-22T15:39:31.286Z</time></trkpt><trkpt lat="44.4806502" lon="9.0852216"><ele>937.0</ele><time>2026-03-22T15:39:32.284Z</time></trkpt><trkpt lat="44.4805697" lon="9.085295"><ele>936.9999999999999</ele><time>2026-03-22T15:39:33.285Z</time></trkpt><trkpt lat="44.4805115" lon="9.0853826"><ele>937.0</ele><time>2026-03-22T15:39:34.286Z</time></trkpt><trkpt lat="44.4804491" lon="9.0854146"><ele>937.0</ele><time>2026-03-22T15:39:35.285Z</time></trkpt><trkpt lat="44.480374" lon="9.0854706"><ele>937.0</ele><time>2026-03-22T15:39:36.284Z</time></trkpt><trkpt lat="44.480298" lon="9.0854883"><ele>936.9999999999999</ele><time>2026-03-22T15:39:37.285Z</time></trkpt><trkpt lat="44.4802076" lon="9.0854834"><ele>937.0</ele><time>2026-03-22T15:39:38.284Z</time></trkpt><trkpt lat="44.4801354" lon="9.0854632"><ele>938.4999999999999</ele><time>2026-03-22T15:39:39.285Z</time></trkpt><trkpt lat="44.4800425" lon="9.0854379"><ele>940.0</ele><time>2026-03-22T15:39:40.284Z</time></trkpt><trkpt lat="44.4799672" lon="9.0853973"><ele>941.5</ele><time>2026-03-22T15:39:41.285Z</time></trkpt><trkpt lat="44.4798971" lon="9.0853726"><ele>943.0</ele><time>2026-03-22T15:39:42.285Z</time></trkpt><trkpt lat="44.4798212" lon="9.0853215"><ele>944.4999999999999</ele><time>2026-03-22T15:39:43.284Z</time></trkpt><trkpt lat="44.4797517" lon="9.0852246"><ele>946.0</ele><time>2026-03-22T15:39:44.284Z</time></trkpt><trkpt lat="44.4796912" lon="9.0851525"><ele>945.5999999999999</ele><time>2026-03-22T15:39:45.285Z</time></trkpt><trkpt lat="44.4795977" lon="9.0850552"><ele>945.1999999999999</ele><time>2026-03-22T15:39:46.286Z</time></trkpt><trkpt lat="44.4795237" lon="9.084967"><ele>944.8000000000001</ele><time>2026-03-22T15:39:47.285Z</time></trkpt><trkpt lat="44.4794618" lon="9.0848574"><ele>944.4000000000001</ele><time>2026-03-22T15:39:48.28Z</time></trkpt><trkpt lat="44.4794202" lon="9.0847579"><ele>944.0</ele><time>2026-03-22T15:39:49.285Z</time></trkpt><trkpt lat="44.4793649" lon="9.0846964"><ele>944.0</ele><time>2026-03-22T15:39:50.284Z</time></trkpt><trkpt lat="44.4792092" lon="9.0846441"><ele>944.0000000000001</ele><time>2026-03-22T15:39:52.285Z</time></trkpt><trkpt lat="44.4791259" lon="9.0846347"><ele>944.0000000000001</ele><time>2026-03-22T15:39:53.285Z</time></trkpt><trkpt lat="44.4790509" lon="9.0846116"><ele>944.0</ele><time>2026-03-22T15:39:54.285Z</time></trkpt><trkpt lat="44.4789989" lon="9.0845522"><ele>944.0</ele><time>2026-03-22T15:39:55.284Z</time></trkpt><trkpt lat="44.4789851" lon="9.0844615"><ele>944.0000000000001</ele><time>2026-03-22T15:39:56.285Z</time></trkpt><trkpt lat="44.4789487" lon="9.0843419"><ele>944.0</ele><time>2026-03-22T15:39:57.286Z</time></trkpt><trkpt lat="44.4789146" lon="9.0842265"><ele>944.0</ele><time>2026-03-22T15:39:58.284Z</time></trkpt><trkpt lat="44.4788882" lon="9.0841393"><ele>944.0</ele><time>2026-03-22T15:39:59.285Z</time></trkpt><trkpt lat="44.4788659" lon="9.0840555"><ele>944.0000000000001</ele><time>2026-03-22T15:40:00.284Z</time></trkpt><trkpt lat="44.4788271" lon="9.0839759"><ele>944.0</ele><time>2026-03-22T15:40:01.284Z</time></trkpt><trkpt lat="44.4787567" lon="9.0838664"><ele>943.3333333333334</ele><time>2026-03-22T15:40:02.285Z</time></trkpt><trkpt lat="44.4786991" lon="9.0837627"><ele>942.6666666666667</ele><time>2026-03-22T15:40:03.285Z</time></trkpt><trkpt lat="44.4786636" lon="9.0836505"><ele>942.0</ele><time>2026-03-22T15:40:04.285Z</time></trkpt><trkpt lat="44.4786297" lon="9.0835391"><ele>941.3333333333333</ele><time>2026-03-22T15:40:05.285Z</time></trkpt><trkpt lat="44.4786276" lon="9.0834145"><ele>940.6666666666666</ele><time>2026-03-22T15:40:06.285Z</time></trkpt><trkpt lat="44.4786351" lon="9.0832878"><ele>940.0</ele><time>2026-03-22T15:40:07.285Z</time></trkpt><trkpt lat="44.4786055" lon="9.083157"><ele>940.0</ele><time>2026-03-22T15:40:09.284Z</time></trkpt><trkpt lat="44.4785294" lon="9.0830495"><ele>940.0</ele><time>2026-03-22T15:40:11.286Z</time></trkpt><trkpt lat="44.4784567" lon="9.0830284"><ele>940.0</ele><time>2026-03-22T15:40:12.284Z</time></trkpt><trkpt lat="44.4783331" lon="9.0830513"><ele>940.0</ele><time>2026-03-22T15:40:14.285Z</time></trkpt><trkpt lat="44.4782513" lon="9.0830523"><ele>940.0</ele><time>2026-03-22T15:40:15.285Z</time></trkpt><trkpt lat="44.478182" lon="9.0830534"><ele>940.0</ele><time>2026-03-22T15:40:16.285Z</time></trkpt><trkpt lat="44.4780979" lon="9.0829786"><ele>940.0</ele><time>2026-03-22T15:40:17.287Z</time></trkpt><trkpt lat="44.4780041" lon="9.0828843"><ele>940.0</ele><time>2026-03-22T15:40:18.286Z</time></trkpt><trkpt lat="44.4779001" lon="9.082775"><ele>940.0</ele><time>2026-03-22T15:40:19.285Z</time></trkpt><trkpt lat="44.4778098" lon="9.0826791"><ele>946.4</ele><time>2026-03-22T15:40:20.285Z</time></trkpt><trkpt lat="44.4777389" lon="9.0825737"><ele>952.8</ele><time>2026-03-22T15:40:21.286Z</time></trkpt><trkpt lat="44.4776671" lon="9.0824663"><ele>959.2</ele><time>2026-03-22T15:40:22.286Z</time></trkpt><trkpt lat="44.4776212" lon="9.08237"><ele>965.6</ele><time>2026-03-22T15:40:23.285Z</time></trkpt><trkpt lat="44.4775479" lon="9.0822362"><ele>972.0</ele><time>2026-03-22T15:40:25.285Z</time></trkpt><trkpt lat="44.477433" lon="9.0821307"><ele>972.0</ele><time>2026-03-22T15:40:27.286Z</time></trkpt><trkpt lat="44.4773745" lon="9.0820943"><ele>972.0</ele><time>2026-03-22T15:40:28.286Z</time></trkpt><trkpt lat="44.4772805" lon="9.0820618"><ele>972.0</ele><time>2026-03-22T15:40:30.286Z</time></trkpt><trkpt lat="44.4771942" lon="9.0820615"><ele>972.0</ele><time>2026-03-22T15:40:32.287Z</time></trkpt></trkseg></trk></gpx>